sensor_id;sensor_type;location;lat;lon;timestamp;pressure;altitude;pressure_sealevel;temperature;humidity
34925;BME280;21130;51.728;8.748;2023-09-19T00:00:15;99559.75;;;15.20;100.00
34925;BME280;21130;51.728;8.748;2023-09-19T00:02:46;99550.53;;;15.20;100.00
34925;BME280;21130;51.728;8.748;2023-09-19T00:05:13;99561.66;;;15.25;100.00
34925;BME280;21130;51.728;8.748;2023-09-19T00:07:40;99569.88;;;15.16;100.00
34925;BME280;21130;51.728;8.748;2023-09-19T00:10:07;99564.88;;;15.13;100.00
34925;BME280;21130;51.728;8.748;2023-09-19T00:12:36;99572.72;;;15.11;100.00
34925;BME280;21130;51.728;8.748;2023-09-19T00:15:04;99574.69;;;15.10;100.00
34925;BME280;21130;51.728;8.748;2023-09-19T00:17:31;99572.50;;;15.07;100.00
34925;BME280;21130;51.728;8.748;2023-09-19T00:20:01;99581.16;;;15.06;100.00
34925;BME280;21130;51.728;8.748;2023-09-19T00:22:32;99570.59;;;15.03;100.00
34925;BME280;21130;51.728;8.748;2023-09-19T00:25:01;99578.72;;;14.99;100.00
34925;BME280;21130;51.728;8.748;2023-09-19T00:27:28;99584.56;;;15.03;100.00
34925;BME280;21130;51.728;8.748;2023-09-19T00:29:54;99590.22;;;14.98;100.00
34925;BME280;21130;51.728;8.748;2023-09-19T00:32:21;99586.56;;;14.97;100.00
34925;BME280;21130;51.728;8.748;2023-09-19T00:34:48;99602.56;;;14.91;100.00
34925;BME280;21130;51.728;8.748;2023-09-19T00:37:16;99594.53;;;14.85;100.00
34925;BME280;21130;51.728;8.748;2023-09-19T00:39:43;99591.69;;;14.90;100.00
34925;BME280;21130;51.728;8.748;2023-09-19T00:42:17;99600.34;;;14.88;100.00
34925;BME280;21130;51.728;8.748;2023-09-19T00:44:46;99598.72;;;14.87;100.00
34925;BME280;21130;51.728;8.748;2023-09-19T00:47:16;99602.28;;;14.93;100.00
34925;BME280;21130;51.728;8.748;2023-09-19T00:49:43;99611.41;;;14.99;100.00
34925;BME280;21130;51.728;8.748;2023-09-19T00:52:10;99610.88;;;14.97;100.00
34925;BME280;21130;51.728;8.748;2023-09-19T00:54:39;99604.75;;;14.95;100.00
34925;BME280;21130;51.728;8.748;2023-09-19T00:57:06;99611.13;;;15.00;100.00
34925;BME280;21130;51.728;8.748;2023-09-19T00:59:33;99615.41;;;14.93;100.00
34925;BME280;21130;51.728;8.748;2023-09-19T01:02:01;99609.88;;;14.87;100.00
34925;BME280;21130;51.728;8.748;2023-09-19T01:04:29;99610.44;;;14.84;100.00
34925;BME280;21130;51.728;8.748;2023-09-19T01:06:55;99628.13;;;14.80;100.00
34925;BME280;21130;51.728;8.748;2023-09-19T01:09:23;99627.84;;;14.76;100.00
34925;BME280;21130;51.728;8.748;2023-09-19T01:11:53;99633.44;;;14.76;100.00
34925;BME280;21130;51.728;8.748;2023-09-19T01:14:30;99627.84;;;14.76;100.00
34925;BME280;21130;51.728;8.748;2023-09-19T01:17:03;99630.16;;;14.69;100.00
34925;BME280;21130;51.728;8.748;2023-09-19T01:19:59;99636.56;;;14.69;100.00
34925;BME280;21130;51.728;8.748;2023-09-19T01:22:36;99646.31;;;14.72;100.00
34925;BME280;21130;51.728;8.748;2023-09-19T01:28:08;99638.00;;;14.67;100.00
34925;BME280;21130;51.728;8.748;2023-09-19T01:30:42;99634.69;;;14.65;100.00
34925;BME280;21130;51.728;8.748;2023-09-19T01:33:10;99632.41;;;14.67;100.00
34925;BME280;21130;51.728;8.748;2023-09-19T01:35:37;99624.34;;;14.65;100.00
34925;BME280;21130;51.728;8.748;2023-09-19T01:38:04;99629.69;;;14.57;100.00
34925;BME280;21130;51.728;8.748;2023-09-19T01:40:33;99649.84;;;14.54;100.00
34925;BME280;21130;51.728;8.748;2023-09-19T01:43:09;99651.00;;;14.47;100.00
34925;BME280;21130;51.728;8.748;2023-09-19T01:45:46;99650.94;;;14.53;100.00
34925;BME280;21130;51.728;8.748;2023-09-19T01:48:25;99654.59;;;14.53;100.00
34925;BME280;21130;51.728;8.748;2023-09-19T01:50:59;99659.03;;;14.54;100.00
34925;BME280;21130;51.728;8.748;2023-09-19T01:53:28;99665.13;;;14.61;100.00
34925;BME280;21130;51.728;8.748;2023-09-19T01:55:57;99665.69;;;14.63;100.00
34925;BME280;21130;51.728;8.748;2023-09-19T01:58:30;99670.44;;;14.63;100.00
34925;BME280;21130;51.728;8.748;2023-09-19T02:01:01;99685.50;;;14.62;100.00
34925;BME280;21130;51.728;8.748;2023-09-19T02:03:29;99677.59;;;14.74;100.00
34925;BME280;21130;51.728;8.748;2023-09-19T02:05:57;99672.84;;;14.75;100.00
34925;BME280;21130;51.728;8.748;2023-09-19T02:08:26;99674.75;;;14.79;100.00
34925;BME280;21130;51.728;8.748;2023-09-19T02:10:53;99673.09;;;14.78;100.00
34925;BME280;21130;51.728;8.748;2023-09-19T02:13:20;99684.28;;;14.78;100.00
34925;BME280;21130;51.728;8.748;2023-09-19T02:15:47;99685.91;;;14.79;100.00
34925;BME280;21130;51.728;8.748;2023-09-19T02:18:16;99685.03;;;14.84;100.00
34925;BME280;21130;51.728;8.748;2023-09-19T02:20:44;99687.00;;;14.83;100.00
34925;BME280;21130;51.728;8.748;2023-09-19T02:23:11;99684.72;;;14.90;100.00
34925;BME280;21130;51.728;8.748;2023-09-19T02:25:38;99691.41;;;14.89;100.00
34925;BME280;21130;51.728;8.748;2023-09-19T02:28:05;99693.69;;;14.87;100.00
34925;BME280;21130;51.728;8.748;2023-09-19T02:30:33;99707.72;;;14.82;100.00
34925;BME280;21130;51.728;8.748;2023-09-19T02:33:01;99698.78;;;14.80;100.00
34925;BME280;21130;51.728;8.748;2023-09-19T02:35:29;99683.69;;;14.81;100.00
34925;BME280;21130;51.728;8.748;2023-09-19T02:38:00;99703.28;;;14.76;100.00
34925;BME280;21130;51.728;8.748;2023-09-19T02:40:27;99694.34;;;14.74;100.00
34925;BME280;21130;51.728;8.748;2023-09-19T02:42:55;99704.41;;;14.75;100.00
34925;BME280;21130;51.728;8.748;2023-09-19T02:45:24;99696.91;;;14.71;100.00
34925;BME280;21130;51.728;8.748;2023-09-19T02:47:51;99704.19;;;14.66;100.00
34925;BME280;21130;51.728;8.748;2023-09-19T02:50:17;99703.13;;;14.62;100.00
34925;BME280;21130;51.728;8.748;2023-09-19T02:52:46;99704.00;;;14.58;100.00
34925;BME280;21130;51.728;8.748;2023-09-19T02:55:14;99689.47;;;14.56;100.00
34925;BME280;21130;51.728;8.748;2023-09-19T02:57:45;99694.53;;;14.54;100.00
34925;BME280;21130;51.728;8.748;2023-09-19T03:00:13;99692.84;;;14.53;100.00
34925;BME280;21130;51.728;8.748;2023-09-19T03:02:39;99697.59;;;14.47;100.00
34925;BME280;21130;51.728;8.748;2023-09-19T03:05:07;99694.56;;;14.43;100.00
34925;BME280;21130;51.728;8.748;2023-09-19T03:07:36;99695.41;;;14.44;100.00
34925;BME280;21130;51.728;8.748;2023-09-19T03:10:06;99694.56;;;14.43;100.00
34925;BME280;21130;51.728;8.748;2023-09-19T03:12:32;99700.16;;;14.43;100.00
34925;BME280;21130;51.728;8.748;2023-09-19T03:14:59;99706.88;;;14.42;100.00
34925;BME280;21130;51.728;8.748;2023-09-19T03:17:26;99722.28;;;14.35;100.00
34925;BME280;21130;51.728;8.748;2023-09-19T03:19:53;99710.22;;;14.39;100.00
34925;BME280;21130;51.728;8.748;2023-09-19T03:22:21;99726.69;;;14.41;100.00
34925;BME280;21130;51.728;8.748;2023-09-19T03:24:49;99721.94;;;14.41;100.00
34925;BME280;21130;51.728;8.748;2023-09-19T03:27:17;99730.06;;;14.38;100.00
34925;BME280;21130;51.728;8.748;2023-09-19T03:29:46;99733.44;;;14.35;100.00
34925;BME280;21130;51.728;8.748;2023-09-19T03:32:12;99731.47;;;14.35;100.00
34925;BME280;21130;51.728;8.748;2023-09-19T03:34:39;99731.47;;;14.35;100.00
34925;BME280;21130;51.728;8.748;2023-09-19T03:37:08;99735.13;;;14.31;100.00
34925;BME280;21130;51.728;8.748;2023-09-19T03:39:35;99734.31;;;14.30;100.00
34925;BME280;21130;51.728;8.748;2023-09-19T03:42:01;99730.13;;;14.27;100.00
34925;BME280;21130;51.728;8.748;2023-09-19T03:44:30;99737.16;;;14.20;100.00
34925;BME280;21130;51.728;8.748;2023-09-19T03:46:57;99735.81;;;14.12;100.00
34925;BME280;21130;51.728;8.748;2023-09-19T03:49:23;99733.31;;;14.05;100.00
34925;BME280;21130;51.728;8.748;2023-09-19T03:51:50;99731.13;;;14.02;100.00
34925;BME280;21130;51.728;8.748;2023-09-19T03:54:16;99736.72;;;13.97;100.00
34925;BME280;21130;51.728;8.748;2023-09-19T03:56:45;99730.03;;;13.93;100.00
34925;BME280;21130;51.728;8.748;2023-09-19T03:59:11;99744.56;;;13.90;100.00
34925;BME280;21130;51.728;8.748;2023-09-19T04:01:40;99740.66;;;13.86;100.00
34925;BME280;21130;51.728;8.748;2023-09-19T04:04:06;99739.84;;;13.80;100.00
34925;BME280;21130;51.728;8.748;2023-09-19T04:06:34;99742.91;;;13.79;100.00
34925;BME280;21130;51.728;8.748;2023-09-19T04:09:01;99737.94;;;13.71;100.00
34925;BME280;21130;51.728;8.748;2023-09-19T04:11:28;99744.91;;;13.68;100.00
34925;BME280;21130;51.728;8.748;2023-09-19T04:13:55;99742.41;;;13.61;100.00
34925;BME280;21130;51.728;8.748;2023-09-19T04:16:22;99732.09;;;13.67;100.00
34925;BME280;21130;51.728;8.748;2023-09-19T04:18:50;99730.75;;;13.59;100.00
34925;BME280;21130;51.728;8.748;2023-09-19T04:21:16;99737.97;;;13.60;100.00
34925;BME280;21130;51.728;8.748;2023-09-19T04:23:45;99740.22;;;13.58;100.00
34925;BME280;21130;51.728;8.748;2023-09-19T04:26:12;99743.56;;;13.55;100.00
34925;BME280;21130;51.728;8.748;2023-09-19T04:28:38;99742.75;;;13.55;100.00
34925;BME280;21130;51.728;8.748;2023-09-19T04:31:05;99741.34;;;13.52;100.00
34925;BME280;21130;51.728;8.748;2023-09-19T04:33:33;99744.16;;;13.47;100.00
34925;BME280;21130;51.728;8.748;2023-09-19T04:36:01;99744.44;;;13.46;100.00
34925;BME280;21130;51.728;8.748;2023-09-19T04:38:32;99748.03;;;13.46;100.00
34925;BME280;21130;51.728;8.748;2023-09-19T04:40:59;99751.41;;;13.43;100.00
34925;BME280;21130;51.728;8.748;2023-09-19T04:43:26;99743.63;;;13.40;100.00
34925;BME280;21130;51.728;8.748;2023-09-19T04:45:53;99747.25;;;13.35;100.00
34925;BME280;21130;51.728;8.748;2023-09-19T04:48:21;99744.19;;;13.37;100.00
34925;BME280;21130;51.728;8.748;2023-09-19T04:50:49;99752.53;;;13.37;100.00
34925;BME280;21130;51.728;8.748;2023-09-19T04:53:17;99748.06;;;13.31;100.00
34925;BME280;21130;51.728;8.748;2023-09-19T04:55:50;99751.44;;;13.28;100.00
34925;BME280;21130;51.728;8.748;2023-09-19T04:58:16;99766.50;;;13.32;100.00
34925;BME280;21130;51.728;8.748;2023-09-19T05:00:43;99768.16;;;13.28;100.00
34925;BME280;21130;51.728;8.748;2023-09-19T05:03:10;99779.31;;;13.28;100.00
34925;BME280;21130;51.728;8.748;2023-09-19T05:05:36;99773.72;;;13.23;100.00
34925;BME280;21130;51.728;8.748;2023-09-19T05:08:04;99794.03;;;13.23;100.00
34925;BME280;21130;51.728;8.748;2023-09-19T05:10:33;99781.22;;;13.22;100.00
34925;BME280;21130;51.728;8.748;2023-09-19T05:13:00;99788.19;;;13.25;100.00
34925;BME280;21130;51.728;8.748;2023-09-19T05:15:27;99791.53;;;13.16;100.00
34925;BME280;21130;51.728;8.748;2023-09-19T05:17:54;99792.94;;;13.09;100.00
34925;BME280;21130;51.728;8.748;2023-09-19T05:20:21;99798.50;;;13.04;100.00
34925;BME280;21130;51.728;8.748;2023-09-19T05:22:58;99802.97;;;13.05;100.00
34925;BME280;21130;51.728;8.748;2023-09-19T05:25:26;99807.72;;;13.04;100.00
34925;BME280;21130;51.728;8.748;2023-09-19T05:27:59;99801.03;;;12.95;100.00
34925;BME280;21130;51.728;8.748;2023-09-19T05:30:28;99809.94;;;12.92;100.00
34925;BME280;21130;51.728;8.748;2023-09-19T05:32:55;99812.41;;;12.88;100.00
34925;BME280;21130;51.728;8.748;2023-09-19T05:35:22;99813.25;;;12.94;100.00
34925;BME280;21130;51.728;8.748;2023-09-19T05:37:50;99817.16;;;12.98;100.00
34925;BME280;21130;51.728;8.748;2023-09-19T05:40:17;99813.00;;;12.95;100.00
34925;BME280;21130;51.728;8.748;2023-09-19T05:42:44;99816.59;;;12.96;100.00
34925;BME280;21130;51.728;8.748;2023-09-19T05:45:13;99824.97;;;12.96;100.00
34925;BME280;21130;51.728;8.748;2023-09-19T05:47:44;99829.44;;;12.97;100.00
34925;BME280;21130;51.728;8.748;2023-09-19T05:50:11;99828.03;;;13.00;100.00
34925;BME280;21130;51.728;8.748;2023-09-19T05:52:38;99845.84;;;12.98;100.00
34925;BME280;21130;51.728;8.748;2023-09-19T05:55:06;99849.19;;;13.01;100.00
34925;BME280;21130;51.728;8.748;2023-09-19T05:57:33;99846.97;;;12.97;100.00
34925;BME280;21130;51.728;8.748;2023-09-19T06:00:00;99861.75;;;13.03;100.00
34925;BME280;21130;51.728;8.748;2023-09-19T06:02:28;99862.31;;;13.10;100.00
34925;BME280;21130;51.728;8.748;2023-09-19T06:04:55;99865.38;;;13.14;100.00
34925;BME280;21130;51.728;8.748;2023-09-19T06:07:22;99873.19;;;13.17;100.00
34925;BME280;21130;51.728;8.748;2023-09-19T06:09:51;99879.03;;;13.15;100.00
34925;BME280;21130;51.728;8.748;2023-09-19T06:12:18;99872.06;;;13.18;100.00
34925;BME280;21130;51.728;8.748;2023-09-19T06:14:45;99879.59;;;13.17;100.00
34925;BME280;21130;51.728;8.748;2023-09-19T06:17:11;99881.81;;;13.15;100.00
34925;BME280;21130;51.728;8.748;2023-09-19T06:19:39;99880.16;;;13.14;100.00
34925;BME280;21130;51.728;8.748;2023-09-19T06:22:07;99881.53;;;13.12;100.00
34925;BME280;21130;51.728;8.748;2023-09-19T06:24:34;99892.41;;;13.13;100.00
34925;BME280;21130;51.728;8.748;2023-09-19T06:27:01;99874.59;;;13.25;100.00
34925;BME280;21130;51.728;8.748;2023-09-19T06:29:29;99882.94;;;13.25;100.00
34925;BME280;21130;51.728;8.748;2023-09-19T06:31:56;99869.59;;;13.37;100.00
34925;BME280;21130;51.728;8.748;2023-09-19T06:34:22;99876.56;;;13.39;100.00
34925;BME280;21130;51.728;8.748;2023-09-19T06:36:51;99876.81;;;13.53;100.00
34925;BME280;21130;51.728;8.748;2023-09-19T06:39:18;99870.16;;;13.59;100.00
34925;BME280;21130;51.728;8.748;2023-09-19T06:41:44;99869.28;;;13.69;100.00
34925;BME280;21130;51.728;8.748;2023-09-19T06:44:11;99870.94;;;13.75;100.00
34925;BME280;21130;51.728;8.748;2023-09-19T06:46:37;99872.06;;;13.85;100.00
34925;BME280;21130;51.728;8.748;2023-09-19T06:49:06;99866.16;;;13.91;100.00
34925;BME280;21130;51.728;8.748;2023-09-19T06:51:32;99868.94;;;13.96;100.00
34925;BME280;21130;51.728;8.748;2023-09-19T06:54:03;99863.91;;;14.03;100.00
34925;BME280;21130;51.728;8.748;2023-09-19T06:56:30;99869.47;;;14.09;100.00
34925;BME280;21130;51.728;8.748;2023-09-19T06:58:57;99870.88;;;14.06;100.00
34925;BME280;21130;51.728;8.748;2023-09-19T07:01:24;99881.75;;;14.08;100.00
34925;BME280;21130;51.728;8.748;2023-09-19T07:03:50;99874.44;;;14.17;100.00
34925;BME280;21130;51.728;8.748;2023-09-19T07:06:18;99875.84;;;14.19;100.00
34925;BME280;21130;51.728;8.748;2023-09-19T07:08:44;99876.09;;;14.28;100.00
34925;BME280;21130;51.728;8.748;2023-09-19T07:11:12;99878.91;;;14.28;100.00
34925;BME280;21130;51.728;8.748;2023-09-19T07:13:39;99876.09;;;14.28;100.00
34925;BME280;21130;51.728;8.748;2023-09-19T07:16:06;99880.28;;;14.31;100.00
34925;BME280;21130;51.728;8.748;2023-09-19T07:18:34;99876.09;;;14.33;100.00
34925;BME280;21130;51.728;8.748;2023-09-19T07:21:02;99875.78;;;14.40;100.00
34925;BME280;21130;51.728;8.748;2023-09-19T07:23:30;99874.63;;;14.46;100.00
34925;BME280;21130;51.728;8.748;2023-09-19T07:26:00;99875.75;;;14.55;100.00
34925;BME280;21130;51.728;8.748;2023-09-19T07:28:28;99881.00;;;14.62;100.00
34925;BME280;21130;51.728;8.748;2023-09-19T07:30:55;99888.84;;;14.60;100.00
34925;BME280;21130;51.728;8.748;2023-09-19T07:33:22;99899.38;;;14.73;100.00
34925;BME280;21130;51.728;8.748;2023-09-19T07:35:50;99902.72;;;14.75;100.00
34925;BME280;21130;51.728;8.748;2023-09-19T07:38:17;99904.66;;;14.80;100.00
34925;BME280;21130;51.728;8.748;2023-09-19T07:40:44;99903.19;;;14.93;100.00
34925;BME280;21130;51.728;8.748;2023-09-19T07:43:10;99905.69;;;14.94;100.00
34925;BME280;21130;51.728;8.748;2023-09-19T07:45:38;99900.38;;;14.98;100.00
34925;BME280;21130;51.728;8.748;2023-09-19T07:48:05;99903.13;;;15.03;100.00
34925;BME280;21130;51.728;8.748;2023-09-19T07:50:38;99910.34;;;15.09;100.00
34925;BME280;21130;51.728;8.748;2023-09-19T07:53:05;99895.78;;;15.12;100.00
34925;BME280;21130;51.728;8.748;2023-09-19T07:55:32;99899.13;;;15.14;100.00
34925;BME280;21130;51.728;8.748;2023-09-19T07:57:59;99907.19;;;15.21;100.00
34925;BME280;21130;51.728;8.748;2023-09-19T08:00:25;99889.50;;;15.30;100.00
34925;BME280;21130;51.728;8.748;2023-09-19T08:02:54;99897.56;;;15.37;100.00
34925;BME280;21130;51.728;8.748;2023-09-19T08:05:21;99902.78;;;15.49;100.00
34925;BME280;21130;51.728;8.748;2023-09-19T08:07:47;99896.53;;;15.57;100.00
34925;BME280;21130;51.728;8.748;2023-09-19T08:10:15;99890.31;;;15.70;100.00
34925;BME280;21130;51.728;8.748;2023-09-19T08:12:46;99896.94;;;15.80;100.00
34925;BME280;21130;51.728;8.748;2023-09-19T08:15:13;99901.31;;;15.91;100.00
34925;BME280;21130;51.728;8.748;2023-09-19T08:17:40;99899.84;;;15.98;100.00
34925;BME280;21130;51.728;8.748;2023-09-19T08:20:09;99891.50;;;15.93;100.00
34925;BME280;21130;51.728;8.748;2023-09-19T08:22:46;99904.50;;;16.08;100.00
34925;BME280;21130;51.728;8.748;2023-09-19T08:25:14;99900.25;;;16.11;100.00
34925;BME280;21130;51.728;8.748;2023-09-19T08:27:43;99908.25;;;16.47;100.00
34925;BME280;21130;51.728;8.748;2023-09-19T08:30:13;99908.25;;;16.47;100.00
34925;BME280;21130;51.728;8.748;2023-09-19T08:32:41;99903.00;;;16.40;100.00
34925;BME280;21130;51.728;8.748;2023-09-19T08:35:10;99899.03;;;16.65;100.00
34925;BME280;21130;51.728;8.748;2023-09-19T08:37:36;99893.97;;;16.67;100.00
34925;BME280;21130;51.728;8.748;2023-09-19T08:40:04;99899.91;;;16.66;100.00
34925;BME280;21130;51.728;8.748;2023-09-19T08:42:47;99896.09;;;16.80;100.00
34925;BME280;21130;51.728;8.748;2023-09-19T08:45:14;99887.13;;;16.97;100.00
34925;BME280;21130;51.728;8.748;2023-09-19T08:47:45;99894.34;;;17.03;100.00
34925;BME280;21130;51.728;8.748;2023-09-19T08:50:19;99897.22;;;17.17;100.00
34925;BME280;21130;51.728;8.748;2023-09-19T08:52:51;99899.03;;;17.27;100.00
34925;BME280;21130;51.728;8.748;2023-09-19T08:55:23;99901.38;;;17.20;100.00
34925;BME280;21130;51.728;8.748;2023-09-19T08:58:00;99913.91;;;17.09;100.00
34925;BME280;21130;51.728;8.748;2023-09-19T09:00:28;99905.88;;;17.21;100.00
34925;BME280;21130;51.728;8.748;2023-09-19T09:02:55;99911.31;;;17.31;100.00
34925;BME280;21130;51.728;8.748;2023-09-19T09:05:25;99906.63;;;17.26;100.00
34925;BME280;21130;51.728;8.748;2023-09-19T09:07:52;99919.56;;;17.22;100.00
34925;BME280;21130;51.728;8.748;2023-09-19T09:10:20;99920.69;;;17.02;100.00
34925;BME280;21130;51.728;8.748;2023-09-19T09:12:48;99923.88;;;17.15;100.00
34925;BME280;21130;51.728;8.748;2023-09-19T09:15:17;99921.72;;;17.31;100.00
34925;BME280;21130;51.728;8.748;2023-09-19T09:17:47;99922.69;;;17.21;100.00
34925;BME280;21130;51.728;8.748;2023-09-19T09:20:16;99926.63;;;17.20;100.00
34925;BME280;21130;51.728;8.748;2023-09-19T09:22:51;99925.25;;;17.36;100.00
34925;BME280;21130;51.728;8.748;2023-09-19T09:25:20;99927.00;;;17.51;100.00
34925;BME280;21130;51.728;8.748;2023-09-19T09:27:58;99937.44;;;17.45;100.00
34925;BME280;21130;51.728;8.748;2023-09-19T09:30:45;99935.94;;;17.53;100.00
34925;BME280;21130;51.728;8.748;2023-09-19T09:33:13;99934.53;;;17.69;100.00
34925;BME280;21130;51.728;8.748;2023-09-19T09:35:48;99933.84;;;18.10;100.00
34925;BME280;21130;51.728;8.748;2023-09-19T09:38:21;99931.00;;;17.97;100.00
34925;BME280;21130;51.728;8.748;2023-09-19T09:40:52;99928.47;;;17.81;100.00
34925;BME280;21130;51.728;8.748;2023-09-19T09:43:29;99927.63;;;18.13;100.00
34925;BME280;21130;51.728;8.748;2023-09-19T09:46:10;99931.31;;;17.95;100.00
34925;BME280;21130;51.728;8.748;2023-09-19T09:49:10;99936.72;;;17.91;100.00
34925;BME280;21130;51.728;8.748;2023-09-19T09:51:51;99926.84;;;18.08;100.00
34925;BME280;21130;51.728;8.748;2023-09-19T09:54:27;99928.66;;;18.18;100.00
34925;BME280;21130;51.728;8.748;2023-09-19T09:57:00;99928.47;;;18.42;100.00
34925;BME280;21130;51.728;8.748;2023-09-19T09:59:46;99938.66;;;18.65;100.00
34925;BME280;21130;51.728;8.748;2023-09-19T10:02:13;99932.25;;;18.78;100.00
34925;BME280;21130;51.728;8.748;2023-09-19T10:04:41;99928.78;;;18.54;100.00
34925;BME280;21130;51.728;8.748;2023-09-19T10:07:25;99933.38;;;18.64;100.00
34925;BME280;21130;51.728;8.748;2023-09-19T10:09:54;99934.88;;;18.01;100.00
34925;BME280;21130;51.728;8.748;2023-09-19T10:12:30;99937.44;;;17.83;100.00
34925;BME280;21130;51.728;8.748;2023-09-19T10:15:00;99932.88;;;17.68;100.00
34925;BME280;21130;51.728;8.748;2023-09-19T10:17:29;99931.13;;;18.05;100.00
34925;BME280;21130;51.728;8.748;2023-09-19T10:19:57;99921.06;;;18.18;100.00
34925;BME280;21130;51.728;8.748;2023-09-19T10:22:31;99920.66;;;18.25;100.00
34925;BME280;21130;51.728;8.748;2023-09-19T10:24:59;99919.94;;;18.19;100.00
34925;BME280;21130;51.728;8.748;2023-09-19T10:27:29;99925.97;;;18.26;100.00
34925;BME280;21130;51.728;8.748;2023-09-19T10:30:05;99923.50;;;18.39;100.00
34925;BME280;21130;51.728;8.748;2023-09-19T10:32:34;99926.63;;;18.51;100.00
34925;BME280;21130;51.728;8.748;2023-09-19T10:35:02;99927.00;;;18.72;100.00
34925;BME280;21130;51.728;8.748;2023-09-19T10:37:32;99926.19;;;18.85;100.00
34925;BME280;21130;51.728;8.748;2023-09-19T10:40:01;99938.47;;;18.75;100.00
34925;BME280;21130;51.728;8.748;2023-09-19T10:42:38;99919.94;;;18.61;100.00
34925;BME280;21130;51.728;8.748;2023-09-19T10:45:06;99929.72;;;18.63;100.00
34925;BME280;21130;51.728;8.748;2023-09-19T10:47:38;99936.06;;;18.69;100.00
34925;BME280;21130;51.728;8.748;2023-09-19T10:50:06;99935.16;;;18.87;100.00
34925;BME280;21130;51.728;8.748;2023-09-19T10:52:40;99929.44;;;18.78;100.00
34925;BME280;21130;51.728;8.748;2023-09-19T10:55:09;99932.25;;;18.78;100.00
34925;BME280;21130;51.728;8.748;2023-09-19T10:57:44;99923.53;;;19.16;100.00
34925;BME280;21130;51.728;8.748;2023-09-19T11:00:12;99927.00;;;19.58;100.00
34925;BME280;21130;51.728;8.748;2023-09-19T11:03:22;99926.56;;;19.79;99.86
34925;BME280;21130;51.728;8.748;2023-09-19T11:06:09;99928.88;;;20.08;89.73
34925;BME280;21130;51.728;8.748;2023-09-19T11:09:06;99929.34;;;20.01;99.60
34925;BME280;21130;51.728;8.748;2023-09-19T11:11:46;99932.63;;;19.95;97.84
34925;BME280;21130;51.728;8.748;2023-09-19T11:14:29;99913.44;;;20.05;91.18
34925;BME280;21130;51.728;8.748;2023-09-19T11:20:24;99923.00;;;20.58;87.27
34925;BME280;21130;51.728;8.748;2023-09-19T11:23:19;99916.88;;;20.25;89.64
34925;BME280;21130;51.728;8.748;2023-09-19T11:25:50;99927.28;;;19.93;92.78
34925;BME280;21130;51.728;8.748;2023-09-19T11:28:33;99905.81;;;20.06;91.66
34925;BME280;21130;51.728;8.748;2023-09-19T11:53:45;99885.97;;;19.80;84.07
34925;BME280;21130;51.728;8.748;2023-09-19T11:56:13;99885.38;;;20.23;84.71
34925;BME280;21130;51.728;8.748;2023-09-19T11:58:43;99881.91;;;20.66;88.59
34925;BME280;21130;51.728;8.748;2023-09-19T12:01:12;99896.50;;;20.59;84.49
34925;BME280;21130;51.728;8.748;2023-09-19T12:03:42;99885.13;;;20.11;85.54
34925;BME280;21130;51.728;8.748;2023-09-19T12:06:14;99891.38;;;20.30;86.04
34925;BME280;21130;51.728;8.748;2023-09-19T12:08:42;99898.09;;;20.52;78.75
34925;BME280;21130;51.728;8.748;2023-09-19T12:11:13;99892.44;;;20.12;77.45
34925;BME280;21130;51.728;8.748;2023-09-19T12:13:42;99885.00;;;19.84;79.20
34925;BME280;21130;51.728;8.748;2023-09-19T12:16:14;99880.47;;;20.06;86.37
34925;BME280;21130;51.728;8.748;2023-09-19T12:18:42;99882.31;;;20.11;82.24
34925;BME280;21130;51.728;8.748;2023-09-19T12:21:24;99878.09;;;20.70;79.56
34925;BME280;21130;51.728;8.748;2023-09-19T12:23:59;99871.75;;;20.56;75.80
34925;BME280;21130;51.728;8.748;2023-09-19T12:26:27;99881.28;;;20.86;79.13
34925;BME280;21130;51.728;8.748;2023-09-19T12:28:55;99885.94;;;20.91;74.65
34925;BME280;21130;51.728;8.748;2023-09-19T12:31:22;99886.44;;;21.71;71.49
34925;BME280;21130;51.728;8.748;2023-09-19T12:33:54;99878.63;;;21.86;71.34
34925;BME280;21130;51.728;8.748;2023-09-19T12:36:22;99871.69;;;21.22;69.28
34925;BME280;21130;51.728;8.748;2023-09-19T12:38:54;99873.16;;;21.11;74.31
34925;BME280;21130;51.728;8.748;2023-09-19T12:41:21;99871.03;;;21.25;77.13
34925;BME280;21130;51.728;8.748;2023-09-19T12:43:49;99859.09;;;21.46;73.44
34925;BME280;21130;51.728;8.748;2023-09-19T12:46:19;99859.91;;;21.46;68.38
34925;BME280;21130;51.728;8.748;2023-09-19T12:49:15;99862.91;;;21.50;70.40
34925;BME280;21130;51.728;8.748;2023-09-19T12:51:43;99857.91;;;21.29;68.92
34925;BME280;21130;51.728;8.748;2023-09-19T12:54:10;99861.41;;;21.44;74.37
34925;BME280;21130;51.728;8.748;2023-09-19T12:56:40;99854.25;;;21.46;71.03
34925;BME280;21130;51.728;8.748;2023-09-19T12:59:12;99855.13;;;21.47;66.84
34925;BME280;21130;51.728;8.748;2023-09-19T13:01:40;99855.41;;;21.54;67.99
34925;BME280;21130;51.728;8.748;2023-09-19T13:04:11;99846.41;;;21.69;65.98
34925;BME280;21130;51.728;8.748;2023-09-19T13:06:40;99849.31;;;21.99;64.05
34925;BME280;21130;51.728;8.748;2023-09-19T13:09:09;99852.69;;;21.92;60.65
34925;BME280;21130;51.728;8.748;2023-09-19T13:11:37;99844.44;;;21.61;61.40
34925;BME280;21130;51.728;8.748;2023-09-19T13:14:21;99852.25;;;21.64;62.81
34925;BME280;21130;51.728;8.748;2023-09-19T13:16:55;99840.31;;;21.41;63.06
34925;BME280;21130;51.728;8.748;2023-09-19T13:19:38;99848.13;;;21.44;68.49
34925;BME280;21130;51.728;8.748;2023-09-19T13:22:36;99841.47;;;20.88;70.15
34925;BME280;21130;51.728;8.748;2023-09-19T13:25:03;99835.34;;;21.03;66.84
34925;BME280;21130;51.728;8.748;2023-09-19T13:27:31;99832.69;;;21.15;70.29
34925;BME280;21130;51.728;8.748;2023-09-19T13:29:59;99841.09;;;21.76;73.34
34925;BME280;21130;51.728;8.748;2023-09-19T13:32:26;99830.03;;;22.01;67.07
34925;BME280;21130;51.728;8.748;2023-09-19T13:34:53;99835.63;;;22.18;66.18